Santa Quiteria do Maranhao, Brazil
Current Conditions -  °F | °C
As of 8:00 PM on Thursday 20 Nov 2014 (Local Time) from SBPB Reporting Station
Few Clouds Few Clouds  
Wind Chill: 82°   Ceiling: Unl
Heat Index: 88°   Visibility: 6mi
Dew Point: 73°   Wind: 18mph
Humidity: 74%   Direction: 90°E
Pressure: 29.83"   Gusts: NA
Location:  3.52°S, 42.55°W
Report Text: SBPB 202300Z 09016KT 9999 FEW020 28/23 Q1010
Loading
Personal Weather Stations






























Interactive Weather Map New forecast layout! Learn more

10-Day Weather Forecast

Advertisements
Track Severe Weather on mobile